sensor_id;sensor_type;location;lat;lon;timestamp;P1;durP1;ratioP1;P2;durP2;ratioP2
1679;SDS011;838;51.794;12.258;2024-03-23T00:53:12;11.13;;;3.23;;
1679;SDS011;838;51.794;12.258;2024-03-23T00:55:40;8.90;;;3.87;;
1679;SDS011;838;51.794;12.258;2024-03-23T00:58:06;7.47;;;2.60;;
1679;SDS011;838;51.794;12.258;2024-03-23T01:00:32;8.10;;;2.93;;
1679;SDS011;838;51.794;12.258;2024-03-23T01:02:58;12.57;;;3.20;;
1679;SDS011;838;51.794;12.258;2024-03-23T01:05:24;5.20;;;2.03;;
1679;SDS011;838;51.794;12.258;2024-03-23T01:07:50;11.40;;;3.20;;
1679;SDS011;838;51.794;12.258;2024-03-23T01:10:16;11.80;;;3.43;;
1679;SDS011;838;51.794;12.258;2024-03-23T01:12:41;11.67;;;3.03;;
1679;SDS011;838;51.794;12.258;2024-03-23T01:15:07;10.30;;;3.17;;
1679;SDS011;838;51.794;12.258;2024-03-23T01:17:33;12.40;;;3.50;;
1679;SDS011;838;51.794;12.258;2024-03-23T01:19:59;11.73;;;2.93;;
1679;SDS011;838;51.794;12.258;2024-03-23T01:22:25;9.50;;;2.67;;
1679;SDS011;838;51.794;12.258;2024-03-23T01:24:50;14.93;;;2.50;;
1679;SDS011;838;51.794;12.258;2024-03-23T01:27:16;10.73;;;3.20;;
1679;SDS011;838;51.794;12.258;2024-03-23T01:29:42;7.30;;;3.40;;
1679;SDS011;838;51.794;12.258;2024-03-23T01:32:07;7.23;;;3.03;;
1679;SDS011;838;51.794;12.258;2024-03-23T01:34:33;8.60;;;3.07;;
1679;SDS011;838;51.794;12.258;2024-03-23T01:36:59;7.47;;;2.50;;
1679;SDS011;838;51.794;12.258;2024-03-23T01:39:25;8.40;;;2.70;;
1679;SDS011;838;51.794;12.258;2024-03-23T01:41:50;9.83;;;2.77;;
1679;SDS011;838;51.794;12.258;2024-03-23T01:44:16;8.10;;;2.60;;
1679;SDS011;838;51.794;12.258;2024-03-23T01:46:42;10.13;;;2.97;;
1679;SDS011;838;51.794;12.258;2024-03-23T01:49:09;10.60;;;3.33;;
1679;SDS011;838;51.794;12.258;2024-03-23T01:51:35;7.60;;;3.10;;
1679;SDS011;838;51.794;12.258;2024-03-23T01:54:02;13.67;;;3.83;;
1679;SDS011;838;51.794;12.258;2024-03-23T01:56:29;11.20;;;3.60;;
1679;SDS011;838;51.794;12.258;2024-03-23T01:58:58;9.30;;;3.37;;
1679;SDS011;838;51.794;12.258;2024-03-23T02:01:23;9.37;;;3.30;;
1679;SDS011;838;51.794;12.258;2024-03-23T02:03:49;8.00;;;3.63;;
1679;SDS011;838;51.794;12.258;2024-03-23T02:06:15;15.97;;;3.90;;
1679;SDS011;838;51.794;12.258;2024-03-23T02:08:40;9.33;;;3.70;;
1679;SDS011;838;51.794;12.258;2024-03-23T02:11:06;13.07;;;4.67;;
1679;SDS011;838;51.794;12.258;2024-03-23T02:13:35;11.33;;;3.77;;
1679;SDS011;838;51.794;12.258;2024-03-23T02:16:01;10.30;;;3.50;;
1679;SDS011;838;51.794;12.258;2024-03-23T02:18:27;9.80;;;2.57;;
1679;SDS011;838;51.794;12.258;2024-03-23T02:20:56;7.90;;;3.40;;
1679;SDS011;838;51.794;12.258;2024-03-23T02:23:21;8.13;;;3.03;;
1679;SDS011;838;51.794;12.258;2024-03-23T02:25:49;6.77;;;3.23;;
1679;SDS011;838;51.794;12.258;2024-03-23T02:28:15;15.57;;;3.20;;
1679;SDS011;838;51.794;12.258;2024-03-23T02:30:42;7.80;;;3.23;;
1679;SDS011;838;51.794;12.258;2024-03-23T02:33:08;14.93;;;2.63;;
1679;SDS011;838;51.794;12.258;2024-03-23T02:35:35;6.10;;;2.70;;
1679;SDS011;838;51.794;12.258;2024-03-23T02:38:01;5.20;;;2.87;;
1679;SDS011;838;51.794;12.258;2024-03-23T02:40:28;8.20;;;3.27;;
1679;SDS011;838;51.794;12.258;2024-03-23T02:42:54;7.83;;;3.27;;
1679;SDS011;838;51.794;12.258;2024-03-23T02:45:20;13.23;;;3.40;;
1679;SDS011;838;51.794;12.258;2024-03-23T02:47:46;11.50;;;3.20;;
1679;SDS011;838;51.794;12.258;2024-03-23T02:50:12;12.17;;;3.33;;
1679;SDS011;838;51.794;12.258;2024-03-23T02:52:39;8.23;;;2.70;;
1679;SDS011;838;51.794;12.258;2024-03-23T02:55:05;9.20;;;3.13;;
1679;SDS011;838;51.794;12.258;2024-03-23T02:57:31;10.43;;;3.07;;
1679;SDS011;838;51.794;12.258;2024-03-23T02:59:57;9.63;;;3.30;;
1679;SDS011;838;51.794;12.258;2024-03-23T03:02:23;7.63;;;2.63;;
1679;SDS011;838;51.794;12.258;2024-03-23T03:04:48;9.87;;;3.33;;
1679;SDS011;838;51.794;12.258;2024-03-23T03:07:14;7.67;;;3.40;;
1679;SDS011;838;51.794;12.258;2024-03-23T03:09:40;9.43;;;3.80;;
1679;SDS011;838;51.794;12.258;2024-03-23T03:12:06;8.20;;;3.10;;
1679;SDS011;838;51.794;12.258;2024-03-23T03:14:32;9.33;;;3.83;;
1679;SDS011;838;51.794;12.258;2024-03-23T03:16:57;8.57;;;3.00;;
1679;SDS011;838;51.794;12.258;2024-03-23T03:19:23;6.93;;;2.70;;
1679;SDS011;838;51.794;12.258;2024-03-23T03:21:49;10.67;;;3.17;;
1679;SDS011;838;51.794;12.258;2024-03-23T03:24:15;11.93;;;3.67;;
1679;SDS011;838;51.794;12.258;2024-03-23T03:26:41;10.63;;;3.43;;
1679;SDS011;838;51.794;12.258;2024-03-23T03:29:07;10.37;;;3.17;;
1679;SDS011;838;51.794;12.258;2024-03-23T03:31:32;11.47;;;3.80;;
1679;SDS011;838;51.794;12.258;2024-03-23T03:33:58;8.40;;;3.20;;
1679;SDS011;838;51.794;12.258;2024-03-23T03:36:24;10.67;;;3.20;;
1679;SDS011;838;51.794;12.258;2024-03-23T03:38:49;8.23;;;2.80;;
1679;SDS011;838;51.794;12.258;2024-03-23T03:41:15;12.37;;;4.17;;
1679;SDS011;838;51.794;12.258;2024-03-23T03:43:41;11.30;;;3.57;;
1679;SDS011;838;51.794;12.258;2024-03-23T03:46:07;10.83;;;2.93;;
1679;SDS011;838;51.794;12.258;2024-03-23T03:48:33;9.93;;;3.20;;
1679;SDS011;838;51.794;12.258;2024-03-23T03:50:59;8.90;;;2.83;;
1679;SDS011;838;51.794;12.258;2024-03-23T03:53:24;11.73;;;2.80;;
1679;SDS011;838;51.794;12.258;2024-03-23T03:55:51;10.13;;;3.43;;
1679;SDS011;838;51.794;12.258;2024-03-23T03:58:17;13.40;;;3.33;;
1679;SDS011;838;51.794;12.258;2024-03-23T04:00:43;10.73;;;3.13;;
1679;SDS011;838;51.794;12.258;2024-03-23T04:03:08;8.93;;;2.90;;
1679;SDS011;838;51.794;12.258;2024-03-23T04:05:34;6.40;;;2.90;;
1679;SDS011;838;51.794;12.258;2024-03-23T04:08:00;13.00;;;3.60;;
1679;SDS011;838;51.794;12.258;2024-03-23T04:10:25;5.93;;;3.03;;
1679;SDS011;838;51.794;12.258;2024-03-23T04:12:51;10.47;;;3.40;;
1679;SDS011;838;51.794;12.258;2024-03-23T04:15:18;7.13;;;3.20;;
1679;SDS011;838;51.794;12.258;2024-03-23T04:17:44;16.03;;;3.83;;
1679;SDS011;838;51.794;12.258;2024-03-23T04:20:10;7.43;;;2.87;;
1679;SDS011;838;51.794;12.258;2024-03-23T04:22:38;13.73;;;3.20;;
1679;SDS011;838;51.794;12.258;2024-03-23T04:25:04;8.03;;;2.93;;
1679;SDS011;838;51.794;12.258;2024-03-23T04:27:32;12.50;;;3.30;;
1679;SDS011;838;51.794;12.258;2024-03-23T04:29:58;7.40;;;2.87;;
1679;SDS011;838;51.794;12.258;2024-03-23T04:32:26;8.90;;;3.20;;
1679;SDS011;838;51.794;12.258;2024-03-23T04:34:52;10.80;;;3.20;;
1679;SDS011;838;51.794;12.258;2024-03-23T04:37:18;11.63;;;4.00;;
1679;SDS011;838;51.794;12.258;2024-03-23T04:39:45;11.63;;;3.67;;
1679;SDS011;838;51.794;12.258;2024-03-23T04:42:10;16.80;;;4.27;;
1679;SDS011;838;51.794;12.258;2024-03-23T04:44:37;11.27;;;4.90;;
1679;SDS011;838;51.794;12.258;2024-03-23T04:47:02;11.30;;;4.40;;
1679;SDS011;838;51.794;12.258;2024-03-23T04:49:30;14.97;;;4.13;;
1679;SDS011;838;51.794;12.258;2024-03-23T04:51:56;15.53;;;3.50;;
1679;SDS011;838;51.794;12.258;2024-03-23T04:54:21;8.80;;;3.80;;
1679;SDS011;838;51.794;12.258;2024-03-23T04:56:47;11.30;;;3.63;;
1679;SDS011;838;51.794;12.258;2024-03-23T04:59:13;8.97;;;3.00;;
1679;SDS011;838;51.794;12.258;2024-03-23T05:01:39;10.57;;;3.03;;
1679;SDS011;838;51.794;12.258;2024-03-23T05:04:07;9.10;;;2.80;;
1679;SDS011;838;51.794;12.258;2024-03-23T05:06:33;9.60;;;3.70;;
1679;SDS011;838;51.794;12.258;2024-03-23T05:09:00;11.23;;;3.20;;
1679;SDS011;838;51.794;12.258;2024-03-23T05:11:35;10.90;;;4.63;;
1679;SDS011;838;51.794;12.258;2024-03-23T05:14:01;6.73;;;2.70;;
1679;SDS011;838;51.794;12.258;2024-03-23T05:16:28;7.17;;;3.20;;
1679;SDS011;838;51.794;12.258;2024-03-23T05:18:53;10.03;;;3.90;;
1679;SDS011;838;51.794;12.258;2024-03-23T05:21:19;11.90;;;5.20;;
1679;SDS011;838;51.794;12.258;2024-03-23T05:23:45;11.57;;;3.57;;
1679;SDS011;838;51.794;12.258;2024-03-23T05:26:11;13.53;;;4.07;;
1679;SDS011;838;51.794;12.258;2024-03-23T05:28:36;6.60;;;3.30;;
1679;SDS011;838;51.794;12.258;2024-03-23T05:31:02;8.23;;;3.17;;
1679;SDS011;838;51.794;12.258;2024-03-23T05:33:28;6.00;;;2.90;;
1679;SDS011;838;51.794;12.258;2024-03-23T05:35:57;5.40;;;3.50;;
1679;SDS011;838;51.794;12.258;2024-03-23T05:38:26;6.50;;;2.60;;
1679;SDS011;838;51.794;12.258;2024-03-23T05:40:56;11.33;;;3.40;;
1679;SDS011;838;51.794;12.258;2024-03-23T05:43:23;7.03;;;3.03;;
1679;SDS011;838;51.794;12.258;2024-03-23T05:45:53;6.60;;;3.40;;
1679;SDS011;838;51.794;12.258;2024-03-23T05:48:22;7.80;;;2.93;;
1679;SDS011;838;51.794;12.258;2024-03-23T05:50:48;14.10;;;3.50;;
1679;SDS011;838;51.794;12.258;2024-03-23T05:53:15;10.90;;;3.70;;
1679;SDS011;838;51.794;12.258;2024-03-23T05:55:41;6.90;;;3.50;;
1679;SDS011;838;51.794;12.258;2024-03-23T05:58:07;9.53;;;3.53;;
1679;SDS011;838;51.794;12.258;2024-03-23T06:00:33;10.60;;;3.93;;
1679;SDS011;838;51.794;12.258;2024-03-23T06:02:59;7.97;;;3.57;;
1679;SDS011;838;51.794;12.258;2024-03-23T06:05:25;13.20;;;3.67;;
1679;SDS011;838;51.794;12.258;2024-03-23T06:07:51;12.10;;;4.40;;
1679;SDS011;838;51.794;12.258;2024-03-23T06:10:17;9.93;;;4.60;;
1679;SDS011;838;51.794;12.258;2024-03-23T06:12:43;11.10;;;3.23;;
1679;SDS011;838;51.794;12.258;2024-03-23T06:15:10;12.70;;;3.60;;
1679;SDS011;838;51.794;12.258;2024-03-23T06:17:37;7.13;;;3.33;;
1679;SDS011;838;51.794;12.258;2024-03-23T06:20:03;9.10;;;3.40;;
1679;SDS011;838;51.794;12.258;2024-03-23T06:22:31;9.53;;;3.80;;
1679;SDS011;838;51.794;12.258;2024-03-23T06:24:57;7.67;;;3.73;;
1679;SDS011;838;51.794;12.258;2024-03-23T06:27:23;10.30;;;3.67;;
1679;SDS011;838;51.794;12.258;2024-03-23T06:29:49;7.20;;;3.57;;
1679;SDS011;838;51.794;12.258;2024-03-23T06:32:14;7.00;;;3.10;;
1679;SDS011;838;51.794;12.258;2024-03-23T06:34:43;12.50;;;3.93;;
1679;SDS011;838;51.794;12.258;2024-03-23T06:37:09;5.73;;;3.50;;
1679;SDS011;838;51.794;12.258;2024-03-23T06:39:38;10.50;;;3.30;;
1679;SDS011;838;51.794;12.258;2024-03-23T06:42:04;11.53;;;3.60;;
1679;SDS011;838;51.794;12.258;2024-03-23T06:44:30;5.40;;;3.03;;
1679;SDS011;838;51.794;12.258;2024-03-23T06:46:56;9.03;;;3.93;;
1679;SDS011;838;51.794;12.258;2024-03-23T06:49:23;10.40;;;4.13;;
1679;SDS011;838;51.794;12.258;2024-03-23T06:51:49;6.70;;;3.40;;
1679;SDS011;838;51.794;12.258;2024-03-23T06:54:16;8.50;;;3.10;;
1679;SDS011;838;51.794;12.258;2024-03-23T06:56:46;8.33;;;3.33;;
1679;SDS011;838;51.794;12.258;2024-03-23T06:59:12;9.90;;;3.60;;
1679;SDS011;838;51.794;12.258;2024-03-23T07:01:38;9.27;;;4.00;;
1679;SDS011;838;51.794;12.258;2024-03-23T07:04:09;17.53;;;4.47;;
1679;SDS011;838;51.794;12.258;2024-03-23T07:06:41;12.13;;;4.30;;
1679;SDS011;838;51.794;12.258;2024-03-23T07:09:09;12.53;;;3.80;;
1679;SDS011;838;51.794;12.258;2024-03-23T07:11:35;10.17;;;3.80;;
1679;SDS011;838;51.794;12.258;2024-03-23T07:14:01;13.90;;;3.60;;
1679;SDS011;838;51.794;12.258;2024-03-23T07:16:27;8.70;;;2.30;;
1679;SDS011;838;51.794;12.258;2024-03-23T07:18:53;6.17;;;2.50;;
1679;SDS011;838;51.794;12.258;2024-03-23T07:21:20;9.30;;;3.13;;
1679;SDS011;838;51.794;12.258;2024-03-23T07:23:46;8.10;;;2.67;;
1679;SDS011;838;51.794;12.258;2024-03-23T07:26:12;9.07;;;3.17;;
1679;SDS011;838;51.794;12.258;2024-03-23T07:28:37;4.53;;;2.13;;
1679;SDS011;838;51.794;12.258;2024-03-23T07:31:11;9.97;;;3.27;;
1679;SDS011;838;51.794;12.258;2024-03-23T07:33:45;5.63;;;2.23;;
1679;SDS011;838;51.794;12.258;2024-03-23T07:36:12;5.37;;;2.20;;
1679;SDS011;838;51.794;12.258;2024-03-23T07:38:41;5.10;;;2.60;;
1679;SDS011;838;51.794;12.258;2024-03-23T07:43:33;7.00;;;3.10;;
1679;SDS011;838;51.794;12.258;2024-03-23T07:46:00;8.07;;;2.83;;
1679;SDS011;838;51.794;12.258;2024-03-23T07:48:26;9.23;;;2.83;;
1679;SDS011;838;51.794;12.258;2024-03-23T07:51:02;6.40;;;2.23;;
1679;SDS011;838;51.794;12.258;2024-03-23T07:53:32;8.50;;;2.30;;
1679;SDS011;838;51.794;12.258;2024-03-23T07:56:00;7.30;;;3.50;;
1679;SDS011;838;51.794;12.258;2024-03-23T07:58:28;5.63;;;2.40;;
1679;SDS011;838;51.794;12.258;2024-03-23T08:00:54;9.03;;;3.00;;
1679;SDS011;838;51.794;12.258;2024-03-23T08:03:20;8.13;;;2.87;;
1679;SDS011;838;51.794;12.258;2024-03-23T08:05:46;6.70;;;2.53;;
1679;SDS011;838;51.794;12.258;2024-03-23T08:08:12;7.67;;;2.70;;
1679;SDS011;838;51.794;12.258;2024-03-23T08:10:48;6.43;;;2.60;;
1679;SDS011;838;51.794;12.258;2024-03-23T08:13:17;4.13;;;2.63;;
1679;SDS011;838;51.794;12.258;2024-03-23T08:15:44;7.27;;;3.17;;
1679;SDS011;838;51.794;12.258;2024-03-23T08:18:11;9.00;;;3.00;;
1679;SDS011;838;51.794;12.258;2024-03-23T08:20:37;7.07;;;3.50;;
1679;SDS011;838;51.794;12.258;2024-03-23T08:23:03;6.63;;;2.90;;
1679;SDS011;838;51.794;12.258;2024-03-23T08:25:32;8.43;;;3.10;;
1679;SDS011;838;51.794;12.258;2024-03-23T08:27:59;8.43;;;2.97;;
1679;SDS011;838;51.794;12.258;2024-03-23T08:30:25;6.40;;;2.80;;
1679;SDS011;838;51.794;12.258;2024-03-23T08:32:51;6.50;;;3.97;;
1679;SDS011;838;51.794;12.258;2024-03-23T08:35:17;5.43;;;2.70;;
1679;SDS011;838;51.794;12.258;2024-03-23T08:37:42;9.87;;;2.93;;
1679;SDS011;838;51.794;12.258;2024-03-23T08:40:08;4.70;;;2.90;;
1679;SDS011;838;51.794;12.258;2024-03-23T08:42:34;6.40;;;2.67;;
1679;SDS011;838;51.794;12.258;2024-03-23T08:45:00;8.90;;;3.67;;
1679;SDS011;838;51.794;12.258;2024-03-23T08:47:26;15.53;;;3.27;;
1679;SDS011;838;51.794;12.258;2024-03-23T08:49:52;5.73;;;2.83;;
1679;SDS011;838;51.794;12.258;2024-03-23T08:52:17;12.20;;;2.73;;
1679;SDS011;838;51.794;12.258;2024-03-23T08:54:43;5.70;;;2.53;;
1679;SDS011;838;51.794;12.258;2024-03-23T08:57:09;6.30;;;2.53;;
1679;SDS011;838;51.794;12.258;2024-03-23T08:59:35;4.40;;;1.83;;
1679;SDS011;838;51.794;12.258;2024-03-23T09:02:02;6.53;;;2.23;;
1679;SDS011;838;51.794;12.258;2024-03-23T09:04:28;6.20;;;1.87;;
1679;SDS011;838;51.794;12.258;2024-03-23T09:06:54;4.83;;;1.90;;
1679;SDS011;838;51.794;12.258;2024-03-23T09:09:19;5.13;;;1.87;;
1679;SDS011;838;51.794;12.258;2024-03-23T09:11:45;4.20;;;2.07;;
1679;SDS011;838;51.794;12.258;2024-03-23T09:14:11;7.33;;;2.10;;
1679;SDS011;838;51.794;12.258;2024-03-23T09:16:36;5.50;;;2.17;;
1679;SDS011;838;51.794;12.258;2024-03-23T09:19:02;9.83;;;2.40;;
1679;SDS011;838;51.794;12.258;2024-03-23T09:21:28;6.13;;;2.40;;
1679;SDS011;838;51.794;12.258;2024-03-23T09:23:53;6.23;;;2.40;;
1679;SDS011;838;51.794;12.258;2024-03-23T09:26:19;3.70;;;2.23;;
1679;SDS011;838;51.794;12.258;2024-03-23T09:28:47;5.10;;;2.37;;
1679;SDS011;838;51.794;12.258;2024-03-23T09:31:14;7.80;;;2.30;;
1679;SDS011;838;51.794;12.258;2024-03-23T09:33:40;3.67;;;2.17;;
1679;SDS011;838;51.794;12.258;2024-03-23T09:36:06;3.83;;;2.23;;
1679;SDS011;838;51.794;12.258;2024-03-23T09:38:33;11.50;;;2.17;;
1679;SDS011;838;51.794;12.258;2024-03-23T09:40:59;5.73;;;1.80;;
1679;SDS011;838;51.794;12.258;2024-03-23T09:43:25;5.00;;;2.70;;
1679;SDS011;838;51.794;12.258;2024-03-23T09:45:51;6.00;;;2.10;;
1679;SDS011;838;51.794;12.258;2024-03-23T09:48:17;11.10;;;2.50;;
1679;SDS011;838;51.794;12.258;2024-03-23T09:50:44;6.43;;;2.77;;
1679;SDS011;838;51.794;12.258;2024-03-23T09:53:11;6.03;;;2.57;;
1679;SDS011;838;51.794;12.258;2024-03-23T09:55:42;8.57;;;2.97;;
1679;SDS011;838;51.794;12.258;2024-03-23T09:58:12;4.40;;;2.33;;
1679;SDS011;838;51.794;12.258;2024-03-23T10:00:38;7.90;;;2.97;;
1679;SDS011;838;51.794;12.258;2024-03-23T10:03:04;4.63;;;2.47;;
1679;SDS011;838;51.794;12.258;2024-03-23T10:05:31;6.77;;;2.73;;
1679;SDS011;838;51.794;12.258;2024-03-23T10:07:59;6.00;;;2.70;;
1679;SDS011;838;51.794;12.258;2024-03-23T10:10:25;13.53;;;2.80;;
1679;SDS011;838;51.794;12.258;2024-03-23T10:12:51;4.00;;;2.23;;
1679;SDS011;838;51.794;12.258;2024-03-23T10:15:18;6.83;;;2.33;;
1679;SDS011;838;51.794;12.258;2024-03-23T10:17:45;8.07;;;2.83;;
1679;SDS011;838;51.794;12.258;2024-03-23T10:20:12;4.70;;;1.83;;
1679;SDS011;838;51.794;12.258;2024-03-23T10:22:38;8.70;;;2.97;;
1679;SDS011;838;51.794;12.258;2024-03-23T10:25:10;8.70;;;3.43;;
1679;SDS011;838;51.794;12.258;2024-03-23T10:27:36;6.73;;;3.80;;
1679;SDS011;838;51.794;12.258;2024-03-23T10:32:42;11.13;;;2.60;;
1679;SDS011;838;51.794;12.258;2024-03-23T10:35:17;8.63;;;3.30;;
1679;SDS011;838;51.794;12.258;2024-03-23T10:37:44;5.20;;;2.80;;
1679;SDS011;838;51.794;12.258;2024-03-23T10:40:14;5.63;;;2.70;;
1679;SDS011;838;51.794;12.258;2024-03-23T10:42:40;5.17;;;2.13;;
1679;SDS011;838;51.794;12.258;2024-03-23T10:45:07;9.67;;;2.60;;
1679;SDS011;838;51.794;12.258;2024-03-23T10:47:34;12.97;;;2.80;;
1679;SDS011;838;51.794;12.258;2024-03-23T10:50:01;6.87;;;2.90;;
1679;SDS011;838;51.794;12.258;2024-03-23T10:52:28;11.07;;;2.80;;
1679;SDS011;838;51.794;12.258;2024-03-23T10:54:54;5.93;;;2.90;;
1679;SDS011;838;51.794;12.258;2024-03-23T10:57:21;7.60;;;2.60;;
1679;SDS011;838;51.794;12.258;2024-03-23T10:59:54;5.53;;;2.03;;
1679;SDS011;838;51.794;12.258;2024-03-23T11:02:21;9.23;;;3.80;;
1679;SDS011;838;51.794;12.258;2024-03-23T11:04:47;6.07;;;2.57;;
1679;SDS011;838;51.794;12.258;2024-03-23T11:09:51;6.87;;;2.43;;
1679;SDS011;838;51.794;12.258;2024-03-23T11:17:20;6.50;;;2.50;;
1679;SDS011;838;51.794;12.258;2024-03-23T11:20:08;7.50;;;3.73;;
1679;SDS011;838;51.794;12.258;2024-03-23T11:22:45;5.50;;;2.50;;
1679;SDS011;838;51.794;12.258;2024-03-23T11:27:44;6.50;;;2.87;;
1679;SDS011;838;51.794;12.258;2024-03-23T11:30:14;6.73;;;3.00;;
1679;SDS011;838;51.794;12.258;2024-03-23T11:32:48;9.57;;;3.00;;
1679;SDS011;838;51.794;12.258;2024-03-23T11:35:29;5.33;;;2.53;;
1679;SDS011;838;51.794;12.258;2024-03-23T11:40:35;5.90;;;2.20;;
1679;SDS011;838;51.794;12.258;2024-03-23T11:43:06;10.53;;;2.60;;
1679;SDS011;838;51.794;12.258;2024-03-23T11:45:34;8.63;;;2.70;;
1679;SDS011;838;51.794;12.258;2024-03-23T11:48:10;6.67;;;3.30;;
1679;SDS011;838;51.794;12.258;2024-03-23T11:50:43;6.13;;;2.60;;
1679;SDS011;838;51.794;12.258;2024-03-23T11:55:49;7.53;;;3.50;;
1679;SDS011;838;51.794;12.258;2024-03-23T11:58:18;7.57;;;2.37;;
1679;SDS011;838;51.794;12.258;2024-03-23T12:00:50;4.70;;;2.27;;
1679;SDS011;838;51.794;12.258;2024-03-23T12:03:30;6.83;;;2.30;;
1679;SDS011;838;51.794;12.258;2024-03-23T12:06:01;7.47;;;2.40;;
1679;SDS011;838;51.794;12.258;2024-03-23T12:11:08;6.53;;;3.27;;
1679;SDS011;838;51.794;12.258;2024-03-23T12:13:36;5.87;;;2.50;;
1679;SDS011;838;51.794;12.258;2024-03-23T12:16:12;4.90;;;2.27;;
1679;SDS011;838;51.794;12.258;2024-03-23T12:18:40;5.43;;;1.80;;
1679;SDS011;838;51.794;12.258;2024-03-23T12:21:07;5.80;;;2.23;;
1679;SDS011;838;51.794;12.258;2024-03-23T12:23:33;6.13;;;2.57;;
1679;SDS011;838;51.794;12.258;2024-03-23T12:25:59;6.10;;;2.90;;
1679;SDS011;838;51.794;12.258;2024-03-23T12:28:26;12.83;;;3.33;;
1679;SDS011;838;51.794;12.258;2024-03-23T12:30:52;6.77;;;1.90;;
1679;SDS011;838;51.794;12.258;2024-03-23T12:33:19;4.87;;;1.90;;
1679;SDS011;838;51.794;12.258;2024-03-23T12:35:46;4.63;;;2.10;;
1679;SDS011;838;51.794;12.258;2024-03-23T12:38:15;7.30;;;2.10;;
1679;SDS011;838;51.794;12.258;2024-03-23T12:40:41;7.73;;;3.07;;
1679;SDS011;838;51.794;12.258;2024-03-23T12:43:07;5.67;;;1.87;;
1679;SDS011;838;51.794;12.258;2024-03-23T12:45:33;8.43;;;2.40;;
1679;SDS011;838;51.794;12.258;2024-03-23T12:47:58;6.77;;;2.80;;
1679;SDS011;838;51.794;12.258;2024-03-23T12:50:24;10.83;;;3.70;;
1679;SDS011;838;51.794;12.258;2024-03-23T12:52:50;5.50;;;2.20;;
1679;SDS011;838;51.794;12.258;2024-03-23T12:55:16;11.37;;;2.80;;
1679;SDS011;838;51.794;12.258;2024-03-23T12:57:42;6.30;;;2.87;;
1679;SDS011;838;51.794;12.258;2024-03-23T13:00:08;9.30;;;2.50;;
1679;SDS011;838;51.794;12.258;2024-03-23T13:02:37;6.80;;;2.67;;
1679;SDS011;838;51.794;12.258;2024-03-23T13:05:04;9.67;;;4.00;;
1679;SDS011;838;51.794;12.258;2024-03-23T13:07:30;10.30;;;4.50;;
1679;SDS011;838;51.794;12.258;2024-03-23T13:09:56;8.40;;;3.53;;
1679;SDS011;838;51.794;12.258;2024-03-23T13:12:22;10.80;;;2.90;;
1679;SDS011;838;51.794;12.258;2024-03-23T13:14:48;6.47;;;3.10;;
1679;SDS011;838;51.794;12.258;2024-03-23T13:17:14;11.70;;;2.63;;
1679;SDS011;838;51.794;12.258;2024-03-23T13:19:40;9.47;;;2.37;;
1679;SDS011;838;51.794;12.258;2024-03-23T13:22:06;5.83;;;2.23;;
1679;SDS011;838;51.794;12.258;2024-03-23T13:24:32;5.90;;;2.20;;
1679;SDS011;838;51.794;12.258;2024-03-23T13:26:58;6.40;;;2.80;;
1679;SDS011;838;51.794;12.258;2024-03-23T13:29:24;6.40;;;2.50;;
1679;SDS011;838;51.794;12.258;2024-03-23T13:31:50;7.20;;;2.23;;
1679;SDS011;838;51.794;12.258;2024-03-23T13:34:17;5.40;;;2.47;;
1679;SDS011;838;51.794;12.258;2024-03-23T13:36:44;6.53;;;3.00;;
1679;SDS011;838;51.794;12.258;2024-03-23T13:39:10;6.27;;;2.40;;
1679;SDS011;838;51.794;12.258;2024-03-23T13:41:39;7.97;;;2.37;;
1679;SDS011;838;51.794;12.258;2024-03-23T13:44:06;4.60;;;2.23;;
1679;SDS011;838;51.794;12.258;2024-03-23T13:46:33;3.90;;;2.00;;
1679;SDS011;838;51.794;12.258;2024-03-23T13:48:59;6.13;;;2.20;;
1679;SDS011;838;51.794;12.258;2024-03-23T13:51:25;5.17;;;1.67;;
1679;SDS011;838;51.794;12.258;2024-03-23T13:53:55;4.63;;;1.80;;
1679;SDS011;838;51.794;12.258;2024-03-23T13:56:22;6.60;;;1.77;;
1679;SDS011;838;51.794;12.258;2024-03-23T13:58:48;3.47;;;1.60;;
1679;SDS011;838;51.794;12.258;2024-03-23T14:01:17;6.00;;;2.03;;
1679;SDS011;838;51.794;12.258;2024-03-23T14:03:43;5.37;;;1.77;;
1679;SDS011;838;51.794;12.258;2024-03-23T14:06:09;3.90;;;1.80;;
1679;SDS011;838;51.794;12.258;2024-03-23T14:08:36;4.77;;;1.73;;
1679;SDS011;838;51.794;12.258;2024-03-23T14:11:04;3.77;;;1.57;;
1679;SDS011;838;51.794;12.258;2024-03-23T14:13:31;5.90;;;2.33;;
1679;SDS011;838;51.794;12.258;2024-03-23T14:15:57;5.33;;;2.13;;
1679;SDS011;838;51.794;12.258;2024-03-23T14:18:25;6.40;;;1.70;;
1679;SDS011;838;51.794;12.258;2024-03-23T14:20:56;3.53;;;1.80;;
1679;SDS011;838;51.794;12.258;2024-03-23T14:23:26;3.90;;;1.90;;
1679;SDS011;838;51.794;12.258;2024-03-23T14:25:54;4.87;;;2.00;;
1679;SDS011;838;51.794;12.258;2024-03-23T14:28:21;4.03;;;1.80;;
1679;SDS011;838;51.794;12.258;2024-03-23T14:30:48;5.03;;;2.20;;
1679;SDS011;838;51.794;12.258;2024-03-23T14:33:15;5.40;;;2.03;;
1679;SDS011;838;51.794;12.258;2024-03-23T14:35:41;5.00;;;2.13;;
1679;SDS011;838;51.794;12.258;2024-03-23T14:38:07;5.30;;;2.60;;
1679;SDS011;838;51.794;12.258;2024-03-23T14:40:33;4.50;;;2.80;;
1679;SDS011;838;51.794;12.258;2024-03-23T14:42:59;4.60;;;2.30;;
1679;SDS011;838;51.794;12.258;2024-03-23T14:45:24;4.70;;;2.70;;
1679;SDS011;838;51.794;12.258;2024-03-23T14:47:50;7.13;;;2.87;;
1679;SDS011;838;51.794;12.258;2024-03-23T14:50:16;5.03;;;2.90;;
1679;SDS011;838;51.794;12.258;2024-03-23T14:52:45;5.03;;;2.10;;
1679;SDS011;838;51.794;12.258;2024-03-23T14:55:11;5.80;;;2.87;;
1679;SDS011;838;51.794;12.258;2024-03-23T14:57:37;4.20;;;2.17;;
1679;SDS011;838;51.794;12.258;2024-03-23T15:00:07;5.60;;;2.53;;
1679;SDS011;838;51.794;12.258;2024-03-23T15:02:35;5.87;;;3.00;;
1679;SDS011;838;51.794;12.258;2024-03-23T15:05:07;4.43;;;2.50;;
1679;SDS011;838;51.794;12.258;2024-03-23T15:07:35;7.93;;;3.00;;
1679;SDS011;838;51.794;12.258;2024-03-23T15:10:03;6.47;;;2.43;;
1679;SDS011;838;51.794;12.258;2024-03-23T15:12:30;4.80;;;2.67;;
1679;SDS011;838;51.794;12.258;2024-03-23T15:14:58;5.37;;;2.60;;
1679;SDS011;838;51.794;12.258;2024-03-23T15:17:25;6.10;;;2.30;;
1679;SDS011;838;51.794;12.258;2024-03-23T15:19:51;5.30;;;2.70;;
1679;SDS011;838;51.794;12.258;2024-03-23T15:22:18;5.37;;;2.63;;
1679;SDS011;838;51.794;12.258;2024-03-23T15:24:46;5.60;;;3.27;;
1679;SDS011;838;51.794;12.258;2024-03-23T15:27:12;5.43;;;2.50;;
1679;SDS011;838;51.794;12.258;2024-03-23T15:29:38;8.40;;;3.63;;
1679;SDS011;838;51.794;12.258;2024-03-23T15:32:04;4.60;;;2.10;;
1679;SDS011;838;51.794;12.258;2024-03-23T15:34:30;3.40;;;1.77;;
1679;SDS011;838;51.794;12.258;2024-03-23T15:36:56;3.10;;;1.60;;
1679;SDS011;838;51.794;12.258;2024-03-23T15:39:22;5.20;;;2.10;;
1679;SDS011;838;51.794;12.258;2024-03-23T15:41:48;4.47;;;2.37;;
1679;SDS011;838;51.794;12.258;2024-03-23T15:44:13;5.90;;;2.73;;
1679;SDS011;838;51.794;12.258;2024-03-23T15:46:39;5.50;;;2.67;;
1679;SDS011;838;51.794;12.258;2024-03-23T15:49:05;4.83;;;2.50;;
1679;SDS011;838;51.794;12.258;2024-03-23T15:51:31;6.30;;;3.00;;
1679;SDS011;838;51.794;12.258;2024-03-23T15:53:59;6.33;;;3.03;;
1679;SDS011;838;51.794;12.258;2024-03-23T15:56:25;6.40;;;2.60;;
1679;SDS011;838;51.794;12.258;2024-03-23T15:58:51;6.73;;;2.43;;
1679;SDS011;838;51.794;12.258;2024-03-23T16:01:17;3.90;;;2.43;;
1679;SDS011;838;51.794;12.258;2024-03-23T16:03:43;4.80;;;2.13;;
1679;SDS011;838;51.794;12.258;2024-03-23T16:06:09;4.70;;;2.10;;
1679;SDS011;838;51.794;12.258;2024-03-23T16:08:34;4.70;;;2.23;;
1679;SDS011;838;51.794;12.258;2024-03-23T16:11:01;7.33;;;3.20;;
1679;SDS011;838;51.794;12.258;2024-03-23T16:13:26;3.90;;;2.30;;
1679;SDS011;838;51.794;12.258;2024-03-23T16:15:57;4.50;;;2.87;;
1679;SDS011;838;51.794;12.258;2024-03-23T16:18:23;5.47;;;2.87;;
1679;SDS011;838;51.794;12.258;2024-03-23T16:20:53;4.73;;;2.60;;
1679;SDS011;838;51.794;12.258;2024-03-23T16:23:24;5.47;;;3.07;;
1679;SDS011;838;51.794;12.258;2024-03-23T16:25:50;5.57;;;2.53;;